createdAt,value
2018-12-19T00:00:09.010Z,132
2018-12-19T00:00:21.363Z,132
2018-12-19T00:00:33.725Z,132
2018-12-19T00:00:46.091Z,132
2018-12-19T00:00:58.438Z,130
2018-12-19T00:01:10.787Z,130
2018-12-19T00:01:23.141Z,130
2018-12-19T00:01:35.493Z,130
2018-12-19T00:01:47.850Z,130
2018-12-19T00:02:00.286Z,134
2018-12-19T00:02:12.640Z,127
2018-12-19T00:02:25.125Z,141
2018-12-19T00:02:37.471Z,153
2018-12-19T00:02:49.789Z,155
2018-12-19T00:03:02.141Z,162
2018-12-19T00:03:14.500Z,134
2018-12-19T00:03:26.837Z,126
2018-12-19T00:03:39.201Z,132
2018-12-19T00:03:51.537Z,132
2018-12-19T00:04:03.886Z,132
2018-12-19T00:04:16.212Z,148
2018-12-19T00:04:28.548Z,150
2018-12-19T00:04:40.879Z,158
2018-12-19T00:04:53.215Z,138
2018-12-19T00:05:05.537Z,147
2018-12-19T00:05:17.874Z,145
2018-12-19T00:05:30.201Z,148
2018-12-19T00:05:42.524Z,144
2018-12-19T00:05:54.858Z,140
2018-12-19T00:06:07.196Z,141
2018-12-19T00:06:19.534Z,146
2018-12-19T00:06:32.347Z,146
2018-12-19T00:06:44.686Z,140
2018-12-19T00:06:57.246Z,146
2018-12-19T00:07:09.645Z,137
2018-12-19T00:07:21.987Z,137
2018-12-19T00:07:34.347Z,135
2018-12-19T00:07:46.716Z,139
2018-12-19T00:07:59.062Z,139
2018-12-19T00:08:11.410Z,139
2018-12-19T00:08:23.739Z,135
2018-12-19T00:08:36.071Z,135
2018-12-19T00:08:48.437Z,137
2018-12-19T00:09:06.506Z,136
2018-12-19T00:09:18.855Z,152
2018-12-19T00:09:31.186Z,153
2018-12-19T00:09:43.531Z,150
2018-12-19T00:09:55.890Z,132
2018-12-19T00:10:08.264Z,126
2018-12-19T00:10:20.616Z,126
2018-12-19T00:10:32.958Z,154
2018-12-19T00:10:45.458Z,150
2018-12-19T00:10:57.807Z,146
2018-12-19T00:11:10.182Z,138
2018-12-19T00:11:22.520Z,137
2018-12-19T00:11:35.008Z,158
2018-12-19T00:11:47.346Z,139
2018-12-19T00:11:59.676Z,140
2018-12-19T00:12:12.007Z,138
2018-12-19T00:12:24.342Z,138
2018-12-19T00:12:36.682Z,141
2018-12-19T00:12:49.035Z,141
2018-12-19T00:13:01.367Z,141
2018-12-19T00:13:13.723Z,136
2018-12-19T00:13:26.071Z,132
2018-12-19T00:13:38.402Z,135
2018-12-19T00:13:51.037Z,154
2018-12-19T00:14:03.372Z,134
2018-12-19T00:14:15.721Z,126
2018-12-19T00:14:28.062Z,122
2018-12-19T00:14:40.402Z,147
2018-12-19T00:14:52.747Z,138
2018-12-19T00:15:05.095Z,137
2018-12-19T00:15:17.433Z,146
2018-12-19T00:15:29.834Z,146
2018-12-19T00:15:42.171Z,146
2018-12-19T00:15:54.516Z,139
2018-12-19T00:16:06.961Z,126
2018-12-19T00:16:19.350Z,130
2018-12-19T00:16:31.699Z,148
2018-12-19T00:16:44.046Z,130
2018-12-19T00:16:56.567Z,141
2018-12-19T00:17:09.079Z,140
2018-12-19T00:17:21.431Z,135
2018-12-19T00:17:33.779Z,138
2018-12-19T00:17:46.120Z,131
2018-12-19T00:17:58.527Z,141
2018-12-19T00:18:10.865Z,155
2018-12-19T00:18:23.201Z,135
2018-12-19T00:18:35.565Z,150
2018-12-19T00:18:47.913Z,134
2018-12-19T00:19:00.251Z,142
2018-12-19T00:19:12.588Z,134
2018-12-19T00:19:25.001Z,136
2018-12-19T00:19:37.349Z,149
2018-12-19T00:19:49.711Z,148
2018-12-19T00:20:02.107Z,150
2018-12-19T00:20:14.555Z,139
2018-12-19T00:20:26.903Z,156
2018-12-19T00:20:39.244Z,158
2018-12-19T00:20:51.590Z,149
2018-12-19T00:21:03.935Z,136
2018-12-19T00:21:16.253Z,142
2018-12-19T00:21:28.580Z,136
2018-12-19T00:21:40.915Z,143
2018-12-19T00:21:53.262Z,158
2018-12-19T00:22:05.588Z,148
2018-12-19T00:22:17.920Z,134
2018-12-19T00:22:30.258Z,138
2018-12-19T00:22:42.590Z,128
2018-12-19T00:22:54.934Z,157
2018-12-19T00:23:07.263Z,126
2018-12-19T00:23:19.606Z,162
2018-12-19T00:23:32.014Z,109
2018-12-19T00:23:44.357Z,111
2018-12-19T00:23:56.706Z,146
2018-12-19T00:24:09.033Z,135
2018-12-19T00:24:21.375Z,148
2018-12-19T00:24:33.716Z,132
2018-12-19T00:24:46.228Z,132
2018-12-19T00:24:58.559Z,132
2018-12-19T00:25:10.976Z,132
2018-12-19T00:25:23.316Z,132
2018-12-19T00:25:35.701Z,140
2018-12-19T00:25:48.064Z,130
2018-12-19T00:26:00.410Z,128
2018-12-19T00:26:12.746Z,140
2018-12-19T00:26:25.075Z,138
2018-12-19T00:26:37.582Z,153
2018-12-19T00:26:49.935Z,140
2018-12-19T00:27:02.271Z,140
2018-12-19T00:27:14.606Z,140
2018-12-19T00:27:26.946Z,146
2018-12-19T00:27:39.272Z,139
2018-12-19T00:27:51.626Z,117
2018-12-19T00:28:03.953Z,117
2018-12-19T00:28:16.286Z,117
2018-12-19T00:28:28.614Z,148
2018-12-19T00:28:40.947Z,152
2018-12-19T00:28:53.328Z,148
2018-12-19T00:29:05.647Z,158
2018-12-19T00:29:18.006Z,157
2018-12-19T00:29:30.345Z,138
2018-12-19T00:29:42.692Z,138
2018-12-19T00:29:55.030Z,132
2018-12-19T00:30:07.526Z,138
2018-12-19T00:30:19.862Z,138
2018-12-19T00:30:32.194Z,155
2018-12-19T00:30:44.518Z,132
2018-12-19T00:30:56.856Z,165
2018-12-19T00:31:09.190Z,138
2018-12-19T00:31:21.523Z,140
2018-12-19T00:31:33.848Z,144
2018-12-19T00:31:46.203Z,146
2018-12-19T00:31:58.615Z,141
2018-12-19T00:32:11.021Z,150
2018-12-19T00:32:23.373Z,136
2018-12-19T00:32:35.810Z,136
2018-12-19T00:32:48.218Z,136
2018-12-19T00:33:00.635Z,136
2018-12-19T00:33:12.981Z,136
2018-12-19T00:33:25.393Z,141
2018-12-19T00:33:37.867Z,156
2018-12-19T00:33:50.213Z,138
2018-12-19T00:34:02.556Z,161
2018-12-19T00:34:14.896Z,158
2018-12-19T00:34:27.296Z,155
2018-12-19T00:34:39.650Z,140
2018-12-19T00:34:51.998Z,140
2018-12-19T00:35:04.332Z,153
2018-12-19T00:35:16.665Z,122
2018-12-19T00:35:29.006Z,147
2018-12-19T00:35:41.338Z,139
2018-12-19T00:35:53.673Z,139
2018-12-19T00:36:06.009Z,139
2018-12-19T00:36:18.365Z,133
2018-12-19T00:36:30.720Z,130
2018-12-19T00:36:43.088Z,144
2018-12-19T00:36:55.519Z,136
2018-12-19T00:37:07.852Z,136
2018-12-19T00:37:20.348Z,135
2018-12-19T00:37:32.688Z,129
2018-12-19T00:37:45.093Z,161
2018-12-19T00:37:57.443Z,133
2018-12-19T00:38:09.783Z,163
2018-12-19T00:38:22.193Z,141
2018-12-19T00:38:34.570Z,140
2018-12-19T00:38:47.089Z,136
2018-12-19T00:38:59.412Z,159
2018-12-19T00:39:18.424Z,132
2018-12-19T00:39:30.801Z,132
2018-12-19T00:39:43.174Z,145
2018-12-19T00:39:55.650Z,115
2018-12-19T00:40:07.997Z,148
2018-12-19T00:40:20.335Z,167
2018-12-19T00:40:33.049Z,158
2018-12-19T00:40:45.394Z,142
2018-12-19T00:40:57.807Z,138
2018-12-19T00:41:10.242Z,138
2018-12-19T00:41:22.571Z,135
2018-12-19T00:41:34.983Z,122
2018-12-19T00:41:47.317Z,140
2018-12-19T00:41:59.658Z,149
2018-12-19T00:42:11.980Z,128
2018-12-19T00:42:24.334Z,127
2018-12-19T00:42:36.670Z,148
2018-12-19T00:42:49.026Z,157
2018-12-19T00:43:01.368Z,137
2018-12-19T00:43:13.706Z,130
2018-12-19T00:43:26.055Z,130
2018-12-19T00:43:38.389Z,156
2018-12-19T00:43:50.733Z,137
2018-12-19T00:44:03.082Z,134
2018-12-19T00:44:15.456Z,137
2018-12-19T00:44:29.241Z,137
2018-12-19T00:44:41.569Z,132
2018-12-19T00:44:53.982Z,130
2018-12-19T00:45:06.313Z,130
2018-12-19T00:45:18.659Z,130
2018-12-19T00:45:30.994Z,130
2018-12-19T00:45:43.540Z,130
2018-12-19T00:45:55.886Z,131
2018-12-19T00:46:08.220Z,131
2018-12-19T00:46:20.569Z,144
2018-12-19T00:46:33.086Z,142
2018-12-19T00:46:45.422Z,152
2018-12-19T00:46:57.766Z,137
2018-12-19T00:47:10.095Z,137
2018-12-19T00:47:22.434Z,163
2018-12-19T00:47:34.789Z,136
2018-12-19T00:47:47.127Z,138
2018-12-19T00:47:59.466Z,146
2018-12-19T00:48:11.808Z,146
2018-12-19T00:48:24.275Z,146
2018-12-19T00:48:36.626Z,146
2018-12-19T00:48:48.965Z,146
2018-12-19T00:49:01.309Z,144
2018-12-19T00:49:13.664Z,144
2018-12-19T00:49:26.066Z,144
2018-12-19T00:49:38.476Z,136
2018-12-19T00:49:51.865Z,142
2018-12-19T00:50:04.403Z,142
2018-12-19T00:50:16.737Z,145
2018-12-19T00:50:29.079Z,145
2018-12-19T00:50:41.416Z,145
2018-12-19T00:50:53.986Z,145
2018-12-19T00:51:06.326Z,146
2018-12-19T00:51:18.676Z,138
2018-12-19T00:51:31.006Z,136
2018-12-19T00:51:43.380Z,136
2018-12-19T00:51:55.723Z,136
2018-12-19T00:52:08.068Z,138
2018-12-19T00:52:20.552Z,161
2018-12-19T00:52:32.906Z,148
2018-12-19T00:52:45.254Z,148
2018-12-19T00:52:57.647Z,132
2018-12-19T00:53:09.994Z,132
2018-12-19T00:53:22.431Z,132
2018-12-19T00:53:34.757Z,132
2018-12-19T00:53:47.106Z,132
2018-12-19T00:53:59.442Z,140
2018-12-19T00:54:11.797Z,138
2018-12-19T00:54:24.149Z,134
2018-12-19T00:54:36.514Z,157
2018-12-19T00:54:48.854Z,131
2018-12-19T00:55:01.199Z,130
2018-12-19T00:55:13.683Z,130
2018-12-19T00:55:26.025Z,130
2018-12-19T00:55:38.414Z,145
2018-12-19T00:55:50.753Z,139
2018-12-19T00:56:03.094Z,134
2018-12-19T00:56:15.648Z,134
2018-12-19T00:56:27.988Z,134
2018-12-19T00:56:40.333Z,134
2018-12-19T00:56:52.827Z,134
2018-12-19T00:57:05.171Z,134
2018-12-19T00:57:17.499Z,134
2018-12-19T00:57:29.832Z,134
2018-12-19T00:57:42.177Z,134
2018-12-19T00:57:54.538Z,131
2018-12-19T00:58:06.885Z,131
2018-12-19T00:58:19.227Z,131
2018-12-19T00:58:31.555Z,131
2018-12-19T00:58:43.881Z,131
2018-12-19T00:58:56.229Z,131
2018-12-19T00:59:08.589Z,131
2018-12-19T00:59:20.940Z,131
2018-12-19T00:59:33.299Z,131
2018-12-19T00:59:45.636Z,131
2018-12-19T00:59:57.978Z,132
2018-12-19T01:00:10.359Z,155
2018-12-19T01:00:22.697Z,124
2018-12-19T01:00:35.049Z,124
2018-12-19T01:00:47.411Z,124
2018-12-19T01:00:59.764Z,124
2018-12-19T01:01:12.100Z,124
2018-12-19T01:01:24.442Z,124
2018-12-19T01:01:36.802Z,121
2018-12-19T01:01:49.151Z,121
2018-12-19T01:02:01.508Z,121
2018-12-19T01:02:13.850Z,121
2018-12-19T01:02:26.219Z,121
2018-12-19T01:02:38.718Z,121
2018-12-19T01:02:51.071Z,121
2018-12-19T01:03:03.413Z,121
2018-12-19T01:03:15.753Z,121
2018-12-19T01:03:28.137Z,121
2018-12-19T01:03:40.482Z,121
2018-12-19T01:03:54.354Z,155
2018-12-19T01:04:06.888Z,138
2018-12-19T01:04:19.231Z,138
2018-12-19T01:04:31.569Z,130
2018-12-19T01:04:50.441Z,129
2018-12-19T01:05:02.790Z,129
2018-12-19T01:05:15.126Z,129
2018-12-19T01:05:27.489Z,129
2018-12-19T01:05:39.819Z,121
2018-12-19T01:05:52.152Z,111
2018-12-19T01:06:04.522Z,111
2018-12-19T01:06:16.854Z,111
2018-12-19T01:06:29.403Z,118
2018-12-19T01:06:41.746Z,118
2018-12-19T01:06:54.073Z,118
2018-12-19T01:07:06.417Z,126
2018-12-19T01:07:18.751Z,126
2018-12-19T01:07:31.152Z,126
2018-12-19T01:07:43.507Z,126
2018-12-19T01:07:55.866Z,126
2018-12-19T01:08:08.212Z,126
2018-12-19T01:08:20.554Z,150
2018-12-19T01:08:32.949Z,157
2018-12-19T01:08:45.330Z,157
2018-12-19T01:08:57.724Z,131
2018-12-19T01:09:15.759Z,154
2018-12-19T01:09:28.252Z,143
2018-12-19T01:09:40.613Z,148
2018-12-19T01:09:52.975Z,138
2018-12-19T01:10:05.308Z,130
2018-12-19T01:10:17.643Z,130
2018-12-19T01:10:29.965Z,130
2018-12-19T01:10:42.303Z,130
2018-12-19T01:10:54.714Z,130
2018-12-19T01:11:07.043Z,130
2018-12-19T01:11:19.384Z,130
2018-12-19T01:11:31.720Z,130
2018-12-19T01:11:44.209Z,130
2018-12-19T01:11:56.553Z,130
2018-12-19T01:12:08.899Z,130
2018-12-19T01:12:21.247Z,130
2018-12-19T01:12:33.674Z,130
2018-12-19T01:12:46.021Z,130
2018-12-19T01:12:58.368Z,162
2018-12-19T01:13:10.704Z,162
2018-12-19T01:13:23.043Z,134
2018-12-19T01:13:35.384Z,121
2018-12-19T01:13:47.915Z,121
2018-12-19T01:14:00.265Z,121
2018-12-19T01:14:12.589Z,121
2018-12-19T01:14:24.939Z,121
2018-12-19T01:14:37.292Z,121
2018-12-19T01:14:49.633Z,121
2018-12-19T01:15:01.967Z,121
2018-12-19T01:15:14.312Z,119
2018-12-19T01:15:26.636Z,119
2018-12-19T01:15:38.979Z,119
2018-12-19T01:15:51.316Z,119
2018-12-19T01:16:03.700Z,117
2018-12-19T01:16:16.037Z,116
2018-12-19T01:16:28.388Z,146
2018-12-19T01:16:40.731Z,136
2018-12-19T01:16:53.111Z,133
2018-12-19T01:17:05.449Z,133
2018-12-19T01:17:18.185Z,133
2018-12-19T01:17:30.576Z,111
2018-12-19T01:17:42.919Z,115
2018-12-19T01:17:55.317Z,71
2018-12-19T01:18:07.678Z,113
2018-12-19T01:18:20.005Z,108
2018-12-19T01:18:32.350Z,119
2018-12-19T01:18:44.687Z,115
2018-12-19T01:18:57.029Z,114
2018-12-19T01:19:09.368Z,114
2018-12-19T01:19:21.707Z,114
2018-12-19T01:19:34.051Z,114
2018-12-19T01:19:46.403Z,114
2018-12-19T01:19:58.761Z,114
2018-12-19T01:20:11.227Z,136
2018-12-19T01:20:23.553Z,153
2018-12-19T01:20:35.897Z,159
2018-12-19T01:20:48.240Z,116
2018-12-19T01:21:00.585Z,116
2018-12-19T01:21:12.929Z,112
2018-12-19T01:21:25.273Z,111
2018-12-19T01:21:37.614Z,163
2018-12-19T01:21:49.979Z,162
2018-12-19T01:22:02.319Z,136
2018-12-19T01:22:14.648Z,122
2018-12-19T01:22:27.021Z,119
2018-12-19T01:22:39.374Z,133
2018-12-19T01:22:51.721Z,133
2018-12-19T01:23:04.057Z,161
2018-12-19T01:23:16.461Z,161
2018-12-19T01:23:28.790Z,125
2018-12-19T01:23:41.129Z,136
2018-12-19T01:23:53.467Z,136
2018-12-19T01:24:05.795Z,136
2018-12-19T01:24:18.152Z,136
2018-12-19T01:24:30.481Z,136
2018-12-19T01:24:42.920Z,146
2018-12-19T01:24:55.298Z,146
2018-12-19T01:25:07.628Z,150
2018-12-19T01:25:19.962Z,149
2018-12-19T01:25:32.285Z,135
2018-12-19T01:25:44.616Z,132
2018-12-19T01:25:56.950Z,132
2018-12-19T01:26:09.292Z,120
2018-12-19T01:26:21.649Z,120
2018-12-19T01:26:34.047Z,120
2018-12-19T01:26:46.508Z,120
2018-12-19T01:26:58.856Z,113
2018-12-19T01:27:11.212Z,171
2018-12-19T01:27:23.550Z,138
2018-12-19T01:27:35.900Z,126
2018-12-19T01:27:48.283Z,113
2018-12-19T01:28:00.629Z,138
2018-12-19T01:28:12.952Z,162
2018-12-19T01:28:25.284Z,138
2018-12-19T01:28:37.610Z,134
2018-12-19T01:28:49.984Z,134
2018-12-19T01:29:02.326Z,134
2018-12-19T01:29:14.670Z,133
2018-12-19T01:29:27.084Z,138
2018-12-19T01:29:39.441Z,130
2018-12-19T01:29:51.770Z,128
2018-12-19T01:30:04.166Z,134
2018-12-19T01:30:16.684Z,129
2018-12-19T01:30:29.045Z,153
2018-12-19T01:30:41.400Z,142
2018-12-19T01:30:53.752Z,142
2018-12-19T01:31:06.138Z,140
2018-12-19T01:31:18.569Z,140
2018-12-19T01:31:30.909Z,136
2018-12-19T01:31:43.252Z,132
2018-12-19T01:31:55.604Z,132
2018-12-19T01:32:07.938Z,132
2018-12-19T01:32:20.291Z,132
2018-12-19T01:32:32.785Z,132
2018-12-19T01:32:45.125Z,132
2018-12-19T01:32:57.471Z,132
2018-12-19T01:33:09.815Z,132
2018-12-19T01:33:22.166Z,132
2018-12-19T01:33:34.501Z,125
2018-12-19T01:33:46.841Z,129
2018-12-19T01:33:59.285Z,129
2018-12-19T01:34:11.644Z,134
2018-12-19T01:34:24.002Z,133
2018-12-19T01:34:36.397Z,133
2018-12-19T01:34:48.737Z,156
2018-12-19T01:35:01.089Z,156
2018-12-19T01:35:13.457Z,138
2018-12-19T01:35:25.792Z,138
2018-12-19T01:35:38.228Z,138
2018-12-19T01:35:50.622Z,138
2018-12-19T01:36:02.969Z,138
2018-12-19T01:36:15.313Z,138
2018-12-19T01:36:27.679Z,138
2018-12-19T01:36:40.009Z,138
2018-12-19T01:36:52.507Z,138
2018-12-19T01:37:04.839Z,138
2018-12-19T01:37:17.339Z,138
2018-12-19T01:37:29.700Z,138
2018-12-19T01:37:42.107Z,138
2018-12-19T01:37:54.520Z,138
2018-12-19T01:38:06.912Z,138
2018-12-19T01:38:19.291Z,138
2018-12-19T01:38:31.640Z,138
2018-12-19T01:38:43.982Z,138
2018-12-19T01:38:56.992Z,138
2018-12-19T01:39:09.342Z,138
2018-12-19T01:39:28.244Z,138
2018-12-19T01:39:40.597Z,132
2018-12-19T01:39:52.938Z,131
2018-12-19T01:40:05.438Z,131
2018-12-19T01:40:17.764Z,131
2018-12-19T01:40:30.500Z,131
2018-12-19T01:40:42.827Z,131
2018-12-19T01:40:55.211Z,131
2018-12-19T01:41:07.919Z,131
2018-12-19T01:41:20.269Z,131
2018-12-19T01:41:32.611Z,131
2018-12-19T01:41:44.964Z,128
2018-12-19T01:41:57.325Z,128
2018-12-19T01:42:09.675Z,128
2018-12-19T01:42:22.118Z,128
2018-12-19T01:42:34.448Z,128
2018-12-19T01:42:46.799Z,128
2018-12-19T01:42:59.147Z,128
2018-12-19T01:43:11.483Z,128
2018-12-19T01:43:23.840Z,128
2018-12-19T01:43:36.185Z,128
2018-12-19T01:43:48.544Z,140
2018-12-19T01:44:00.874Z,136
2018-12-19T01:44:13.215Z,136
2018-12-19T01:44:25.546Z,130
2018-12-19T01:44:37.948Z,132
2018-12-19T01:44:50.301Z,132
2018-12-19T01:45:02.658Z,153
2018-12-19T01:45:15.045Z,153
2018-12-19T01:45:27.385Z,132
2018-12-19T01:45:39.870Z,132
2018-12-19T01:45:52.215Z,129
2018-12-19T01:46:04.551Z,129
2018-12-19T01:46:16.913Z,129
2018-12-19T01:46:29.542Z,129
2018-12-19T01:46:41.962Z,129
2018-12-19T01:46:54.299Z,129
2018-12-19T01:47:06.647Z,129
2018-12-19T01:47:18.980Z,129
2018-12-19T01:47:31.385Z,129
2018-12-19T01:47:43.723Z,129
2018-12-19T01:47:56.071Z,129
2018-12-19T01:48:08.483Z,129
2018-12-19T01:48:20.820Z,129
2018-12-19T01:48:33.336Z,129
2018-12-19T01:48:45.659Z,129
2018-12-19T01:48:58.012Z,129
2018-12-19T01:49:10.348Z,129
2018-12-19T01:49:22.697Z,138
2018-12-19T01:49:35.031Z,151
2018-12-19T01:49:47.413Z,134
2018-12-19T01:49:59.740Z,151
2018-12-19T01:50:12.280Z,150
2018-12-19T01:50:24.638Z,152
2018-12-19T01:50:36.985Z,152
2018-12-19T01:50:49.555Z,152
2018-12-19T01:51:01.885Z,152
2018-12-19T01:51:14.221Z,152
2018-12-19T01:51:26.560Z,150
2018-12-19T01:51:38.882Z,140
2018-12-19T01:51:51.237Z,140
2018-12-19T01:52:03.600Z,140
2018-12-19T01:52:16.046Z,138
2018-12-19T01:52:28.439Z,128
2018-12-19T01:52:40.797Z,131
2018-12-19T01:52:53.133Z,115
2018-12-19T01:53:05.475Z,115
2018-12-19T01:53:17.813Z,115
2018-12-19T01:53:30.307Z,115
2018-12-19T01:53:42.639Z,115
2018-12-19T01:53:54.974Z,115
2018-12-19T01:54:07.331Z,115
2018-12-19T01:54:19.661Z,142
2018-12-19T01:54:31.996Z,126
2018-12-19T01:54:44.348Z,126
2018-12-19T01:54:56.698Z,126
2018-12-19T01:55:09.165Z,149
2018-12-19T01:55:21.540Z,156
2018-12-19T01:55:33.891Z,156
2018-12-19T01:55:46.242Z,152
2018-12-19T01:55:58.569Z,151
2018-12-19T01:56:11.018Z,151
2018-12-19T01:56:23.351Z,137
2018-12-19T01:56:35.698Z,136
2018-12-19T01:56:48.050Z,158
2018-12-19T01:57:00.536Z,142
2018-12-19T01:57:12.857Z,142
2018-12-19T01:57:25.268Z,141
2018-12-19T01:57:37.618Z,141
2018-12-19T01:57:49.951Z,141
2018-12-19T01:58:02.292Z,141
2018-12-19T01:58:14.637Z,140
2018-12-19T01:58:26.989Z,140
2018-12-19T01:58:39.400Z,140
2018-12-19T01:58:51.722Z,140
2018-12-19T01:59:04.097Z,141
2018-12-19T01:59:16.496Z,141
2018-12-19T01:59:28.885Z,137
2018-12-19T01:59:41.235Z,137
2018-12-19T01:59:53.576Z,137
2018-12-19T02:00:05.906Z,137
2018-12-19T02:00:18.284Z,137
2018-12-19T02:00:30.734Z,137
2018-12-19T02:00:43.101Z,137
2018-12-19T02:00:55.490Z,137
2018-12-19T02:01:07.834Z,137
2018-12-19T02:01:20.184Z,137
2018-12-19T02:01:32.555Z,137
2018-12-19T02:01:44.907Z,137
2018-12-19T02:01:57.255Z,137
2018-12-19T02:02:09.593Z,137
2018-12-19T02:02:21.986Z,137
2018-12-19T02:02:34.336Z,137
2018-12-19T02:02:46.827Z,137
2018-12-19T02:02:59.160Z,137
2018-12-19T02:03:11.498Z,137
2018-12-19T02:03:23.852Z,137
2018-12-19T02:03:36.238Z,137
2018-12-19T02:03:48.604Z,163
2018-12-19T02:04:00.944Z,163
2018-12-19T02:04:13.303Z,163
2018-12-19T02:04:25.670Z,163
2018-12-19T02:04:38.006Z,162
2018-12-19T02:04:50.834Z,162
2018-12-19T02:05:03.177Z,162
2018-12-19T02:05:15.508Z,162
2018-12-19T02:05:27.858Z,162
2018-12-19T02:05:40.272Z,162
2018-12-19T02:05:52.624Z,162
2018-12-19T02:06:04.959Z,162
2018-12-19T02:06:17.310Z,162
2018-12-19T02:06:29.914Z,139
2018-12-19T02:06:42.274Z,139
2018-12-19T02:06:54.626Z,139
2018-12-19T02:07:06.954Z,139
2018-12-19T02:07:19.300Z,131
2018-12-19T02:07:31.643Z,131
2018-12-19T02:07:43.976Z,131
2018-12-19T02:07:56.366Z,131
2018-12-19T02:08:08.695Z,131
2018-12-19T02:08:21.031Z,131
2018-12-19T02:08:33.370Z,131
2018-12-19T02:08:45.703Z,131
2018-12-19T02:08:58.040Z,131
2018-12-19T02:09:10.385Z,130
2018-12-19T02:09:28.720Z,128
2018-12-19T02:09:41.452Z,128
2018-12-19T02:09:53.803Z,128
2018-12-19T02:10:06.155Z,128
2018-12-19T02:10:18.488Z,128
2018-12-19T02:10:30.902Z,128
2018-12-19T02:10:43.297Z,128
2018-12-19T02:10:55.646Z,128
2018-12-19T02:11:07.990Z,128
2018-12-19T02:11:20.332Z,128
2018-12-19T02:11:32.754Z,124
2018-12-19T02:11:45.104Z,124
2018-12-19T02:11:57.437Z,144
2018-12-19T02:12:09.793Z,134
2018-12-19T02:12:22.133Z,134
2018-12-19T02:12:34.489Z,148
2018-12-19T02:12:46.856Z,137
2018-12-19T02:12:59.188Z,136
2018-12-19T02:13:11.551Z,136
2018-12-19T02:13:23.887Z,136
2018-12-19T02:13:36.229Z,136
2018-12-19T02:13:48.714Z,136
2018-12-19T02:14:01.057Z,136
2018-12-19T02:14:13.456Z,136
2018-12-19T02:14:25.806Z,136
2018-12-19T02:14:38.159Z,136
2018-12-19T02:14:50.579Z,136
2018-12-19T02:15:02.921Z,136
2018-12-19T02:15:15.268Z,136
2018-12-19T02:15:27.613Z,136
2018-12-19T02:15:39.953Z,136
2018-12-19T02:15:52.297Z,136
2018-12-19T02:16:04.690Z,136
2018-12-19T02:16:17.028Z,136
2018-12-19T02:16:29.388Z,136
2018-12-19T02:16:41.740Z,136
2018-12-19T02:16:54.085Z,136
2018-12-19T02:17:06.495Z,136
2018-12-19T02:17:18.971Z,136
2018-12-19T02:17:31.305Z,136
2018-12-19T02:17:43.723Z,136
2018-12-19T02:17:56.085Z,136
2018-12-19T02:18:08.421Z,136
2018-12-19T02:18:20.774Z,136
2018-12-19T02:18:33.195Z,136
2018-12-19T02:18:45.535Z,136
2018-12-19T02:18:57.933Z,136
2018-12-19T02:19:10.438Z,136
2018-12-19T02:19:22.772Z,136
2018-12-19T02:19:35.134Z,136
2018-12-19T02:19:47.479Z,136
2018-12-19T02:19:59.834Z,136
2018-12-19T02:20:12.336Z,136
2018-12-19T02:20:24.701Z,136
2018-12-19T02:20:37.091Z,136
2018-12-19T02:20:49.448Z,133
2018-12-19T02:21:01.798Z,133
2018-12-19T02:21:14.131Z,131
2018-12-19T02:21:26.463Z,180
2018-12-19T02:21:38.804Z,168
2018-12-19T02:21:51.148Z,129
2018-12-19T02:22:03.492Z,130
2018-12-19T02:22:15.836Z,130
2018-12-19T02:22:28.178Z,130
2018-12-19T02:22:40.512Z,130
2018-12-19T02:22:52.848Z,130
2018-12-19T02:23:05.205Z,130
2018-12-19T02:23:17.527Z,130
2018-12-19T02:23:29.911Z,130
2018-12-19T02:23:42.317Z,130
2018-12-19T02:23:54.656Z,130
2018-12-19T02:24:07.005Z,130
2018-12-19T02:24:19.340Z,130
2018-12-19T02:24:31.689Z,130
2018-12-19T02:24:44.302Z,130
2018-12-19T02:24:56.635Z,158
2018-12-19T02:25:08.980Z,153
2018-12-19T02:25:21.352Z,153
2018-12-19T02:25:33.696Z,153
2018-12-19T02:25:46.045Z,153
2018-12-19T02:25:58.386Z,153
2018-12-19T02:26:10.743Z,153
2018-12-19T02:26:23.078Z,153
2018-12-19T02:26:35.543Z,153
2018-12-19T02:26:47.941Z,153
2018-12-19T02:27:00.276Z,134
2018-12-19T02:27:12.593Z,134
2018-12-19T02:27:24.925Z,134
2018-12-19T02:27:37.266Z,134
2018-12-19T02:27:49.598Z,132
2018-12-19T02:28:01.937Z,132
2018-12-19T02:28:14.274Z,132
2018-12-19T02:28:26.674Z,133
2018-12-19T02:28:39.010Z,142
2018-12-19T02:28:51.354Z,144
2018-12-19T02:29:03.736Z,144
2018-12-19T02:29:16.070Z,144
2018-12-19T02:29:28.428Z,144
2018-12-19T02:29:40.753Z,144
2018-12-19T02:29:53.086Z,144
2018-12-19T02:30:05.480Z,144
2018-12-19T02:30:17.986Z,142
2018-12-19T02:30:30.363Z,153
2018-12-19T02:30:42.742Z,153
2018-12-19T02:30:55.102Z,153
2018-12-19T02:31:07.578Z,153
2018-12-19T02:31:19.926Z,153
2018-12-19T02:31:32.274Z,153
2018-12-19T02:31:44.644Z,153
2018-12-19T02:31:57.005Z,121
2018-12-19T02:32:09.338Z,130
2018-12-19T02:32:21.720Z,130
2018-12-19T02:32:34.155Z,130
2018-12-19T02:32:46.498Z,130
2018-12-19T02:32:58.850Z,130
2018-12-19T02:33:11.193Z,147
2018-12-19T02:33:23.543Z,146
2018-12-19T02:33:36.004Z,164
2018-12-19T02:33:48.385Z,164
2018-12-19T02:34:00.725Z,164
2018-12-19T02:34:13.109Z,164
2018-12-19T02:34:25.488Z,164
2018-12-19T02:34:37.849Z,164
2018-12-19T02:34:50.223Z,164
2018-12-19T02:35:02.667Z,164
2018-12-19T02:35:14.996Z,164
2018-12-19T02:35:27.335Z,164
2018-12-19T02:35:39.669Z,164
2018-12-19T02:35:52.060Z,164
2018-12-19T02:36:04.429Z,164
2018-12-19T02:36:16.797Z,164
2018-12-19T02:36:29.162Z,164
2018-12-19T02:36:41.519Z,139
2018-12-19T02:36:54.013Z,139
2018-12-19T02:37:06.357Z,157
2018-12-19T02:37:18.792Z,157
2018-12-19T02:37:31.129Z,157
2018-12-19T02:37:43.573Z,157
2018-12-19T02:37:55.938Z,157
2018-12-19T02:38:08.313Z,150
2018-12-19T02:38:20.670Z,143
2018-12-19T02:38:33.045Z,143
2018-12-19T02:38:45.402Z,148
2018-12-19T02:38:57.945Z,148
2018-12-19T02:39:10.341Z,152
2018-12-19T02:39:22.700Z,146
2018-12-19T02:39:41.953Z,146
2018-12-19T02:39:54.388Z,145
2018-12-19T02:40:06.773Z,145
2018-12-19T02:40:19.187Z,149
2018-12-19T02:40:31.830Z,148
2018-12-19T02:40:44.243Z,149
2018-12-19T02:40:56.613Z,148
2018-12-19T02:41:09.233Z,148
2018-12-19T02:41:21.595Z,148
2018-12-19T02:41:33.984Z,148
2018-12-19T02:41:46.349Z,148
2018-12-19T02:41:58.686Z,148
2018-12-19T02:42:11.047Z,148
2018-12-19T02:42:23.409Z,138
2018-12-19T02:42:35.821Z,135
2018-12-19T02:42:48.221Z,135
2018-12-19T02:43:00.643Z,164
2018-12-19T02:43:13.006Z,142
2018-12-19T02:43:25.376Z,140
2018-12-19T02:43:37.777Z,140
2018-12-19T02:43:50.178Z,140
2018-12-19T02:44:02.561Z,140
2018-12-19T02:44:14.934Z,140
2018-12-19T02:44:27.270Z,140
2018-12-19T02:44:39.622Z,140
2018-12-19T02:44:51.995Z,140
2018-12-19T02:45:04.344Z,140
2018-12-19T02:45:16.694Z,140
2018-12-19T02:45:29.054Z,140
2018-12-19T02:45:41.543Z,137
2018-12-19T02:45:53.885Z,148
2018-12-19T02:46:06.240Z,144
2018-12-19T02:46:18.598Z,144
2018-12-19T02:46:31.205Z,144
2018-12-19T02:46:43.565Z,141
2018-12-19T02:46:55.937Z,141
2018-12-19T02:47:08.298Z,141
2018-12-19T02:47:20.639Z,163
2018-12-19T02:47:33.016Z,141
2018-12-19T02:47:45.383Z,141
2018-12-19T02:47:57.725Z,141
2018-12-19T02:48:10.082Z,136
2018-12-19T02:48:22.442Z,130
2018-12-19T02:48:35.251Z,130
2018-12-19T02:48:47.594Z,130
2018-12-19T02:48:59.957Z,155
2018-12-19T02:49:12.332Z,151
2018-12-19T02:49:24.690Z,151
2018-12-19T02:49:37.037Z,151
2018-12-19T02:49:49.411Z,151
2018-12-19T02:50:01.777Z,151
2018-12-19T02:50:14.475Z,151
2018-12-19T02:50:26.873Z,145
2018-12-19T02:50:39.228Z,145
2018-12-19T02:50:51.760Z,145
2018-12-19T02:51:04.114Z,145
2018-12-19T02:51:16.484Z,145